Time;durP1;ratioP1;P1;durP2;ratioP2;P2;SDS_P1;SDS_P2;PMS_P1;PMS_P2;Temp;Humidity;BMP_temperature;BMP_pressure;BME280_temperature;BME280_humidity;BME280_pressure;Samples;Min_cycle;Max_cycle;Signal;HPM_P1;HPM_P2
2021/01/02 00:00:50;;;;;;;;;;;7.60;99.90;;;6.99;83.58;100941.31;5012957;28;19927;-63
2021/01/02 00:03:58;;;;;;;;;;;7.50;99.90;;;6.92;83.71;100929.19;4994454;28;19928;-63
2021/01/02 00:06:42;;;;;;;;;;;7.50;99.90;;;6.92;83.78;100938.06;5012834;28;19936;-64
2021/01/02 00:09:15;;;;;;;;;;;7.50;99.90;;;6.94;83.79;100933.22;5012940;28;19930;-63
2021/01/02 00:11:50;;;;;;;;;;;7.50;99.90;;;6.98;83.26;100928.13;4994449;28;19932;-63
2021/01/02 00:14:26;;;;;;;;;;;7.50;99.90;;;7.02;83.19;100931.94;5012874;28;20008;-63
2021/01/02 00:17:24;;;;;;;;;;;7.60;99.90;;;7.05;82.89;100929.50;5012615;28;19948;-63
2021/01/02 00:20:09;;;;;;;;;;;7.60;99.90;;;7.03;83.21;100926.28;5012620;28;19925;-63
2021/01/02 00:22:47;;;;;;;;;;;7.60;99.90;;;6.86;84.07;100927.56;5011742;28;19929;-63
2021/01/02 00:25:16;;;;;;;;;;;7.50;99.90;;;6.87;84.47;100927.28;4995204;28;19926;-63
2021/01/02 00:28:10;;;;;;;;;;;7.50;99.90;;;6.93;84.73;100926.22;5012679;28;19929;-63
2021/01/02 00:31:11;;;;;;;;;;;7.50;99.90;;;7.01;84.01;100920.38;5012531;28;20036;-63
2021/01/02 00:33:54;;;;;;;;;;;7.50;99.90;;;7.03;83.65;100917.41;4986673;28;19929;-63
2021/01/02 00:36:27;;;;;;;;;;;7.60;99.90;;;6.92;83.31;100913.88;5012333;28;20365;-63
2021/01/02 00:38:55;;;;;;;;;;;7.50;99.90;;;6.76;84.95;100900.63;5012547;28;19926;-63
2021/01/02 00:41:23;;;;;;;;;;;7.40;99.90;;;6.70;85.31;100907.03;4978543;28;19929;-63
2021/01/02 00:43:51;;;;;;;;;;;7.30;99.90;;;6.66;85.52;100903.28;5011795;28;19930;-64
2021/01/02 00:46:18;;;;;;;;;;;7.30;99.90;;;6.65;85.55;100902.47;5012191;28;19925;-63
2021/01/02 00:48:48;;;;;;;;;;;7.30;99.90;;;6.60;85.62;100897.06;5012482;28;19925;-64
2021/01/02 00:51:16;;;;;;;;;;;7.20;99.90;;;6.62;85.27;100892.25;5012115;28;20146;-63
2021/01/02 00:53:57;;;;;;;;;;;7.20;99.90;;;6.66;85.80;100890.63;5011532;28;19980;-63
2021/01/02 00:56:30;;;;;;;;;;;7.30;99.90;;;6.73;86.29;100888.53;5012184;28;19948;-63
2021/01/02 00:59:18;;;;;;;;;;;7.30;99.90;;;6.78;86.15;100893.91;5012258;28;19926;-64
2021/01/02 01:01:47;;;;;;;;;;;7.40;99.90;;;6.73;84.50;100893.09;5011906;28;20262;-63
2021/01/02 01:04:45;;;;;;;;;;;7.30;99.90;;;6.64;85.19;100895.47;4994684;28;19925;-63
2021/01/02 01:07:18;;;;;;;;;;;7.20;99.90;;;6.60;85.12;100897.88;4985079;28;19926;-63
2021/01/02 01:09:49;;;;;;;;;;;7.20;99.90;;;6.57;85.11;100893.00;4996395;28;19931;-63
2021/01/02 01:12:19;;;;;;;;;;;7.20;99.90;;;6.54;86.03;100892.72;4998068;28;20023;-63
2021/01/02 01:14:47;;;;;;;;;;;7.20;99.90;;;6.65;85.32;100893.59;5016245;28;19930;-63
2021/01/02 01:17:18;;;;;;;;;;;7.30;99.90;;;6.67;85.74;100894.13;4998752;28;19929;-64
2021/01/02 01:19:46;;;;;;;;;;;7.20;99.90;;;6.73;85.96;100890.41;5016077;28;19929;-63
2021/01/02 01:22:15;;;;;;;;;;;7.30;99.90;;;6.83;84.78;100891.25;5015171;28;19926;-63
2021/01/02 01:24:48;;;;;;;;;;;7.40;99.90;;;6.91;84.60;100889.94;4998275;28;19979;-64
2021/01/02 01:27:16;;;;;;;;;;;7.50;99.90;;;6.94;85.28;100894.78;5015781;28;20285;-63
2021/01/02 01:29:58;;;;;;;;;;;7.50;99.90;;;6.98;84.71;100894.00;5015793;28;20023;-63
2021/01/02 01:32:26;;;;;;;;;;;7.50;99.90;;;7.03;84.56;100899.38;5015100;28;19929;-64
2021/01/02 01:34:58;;;;;;;;;;;7.60;99.90;;;7.07;84.67;100892.41;5015474;28;19926;-64
2021/01/02 01:37:30;;;;;;;;;;;7.60;99.90;;;7.01;85.86;100898.03;4998299;28;19968;-63
2021/01/02 01:39:58;;;;;;;;;;;7.60;99.90;;;6.87;85.48;100897.72;5015638;28;19925;-63
2021/01/02 01:42:40;;;;;;;;;;;7.50;99.90;;;6.72;86.28;100900.34;4997529;28;20009;-63
2021/01/02 01:45:26;;;;;;;;;;;7.40;99.90;;;6.50;87.09;100903.22;4997990;28;19926;-64
2021/01/02 01:48:04;;;;;;;;;;;7.20;99.90;;;6.36;89.06;100910.09;5015731;28;19933;-63
2021/01/02 01:50:45;;;;;;;;;;;7.00;99.90;;;6.35;89.45;100916.53;5015317;28;19930;-63
2021/01/02 01:53:40;;;;;;;;;;;7.00;99.90;;;6.39;89.53;100917.63;5014638;28;19972;-63
2021/01/02 01:56:16;;;;;;;;;;;7.00;99.90;;;6.52;88.54;100914.50;5015180;28;19980;-63
2021/01/02 01:59:21;;;;;;;;;;;7.10;99.90;;;6.61;87.94;100906.75;5015273;28;19925;-63
2021/01/02 02:01:50;;;;;;;;;;;7.20;99.90;;;6.71;87.74;100908.66;5011167;28;20450;-63
2021/01/02 02:04:56;;;;;;;;;;;7.30;99.90;;;6.79;87.46;100908.16;5014878;28;20336;-63
2021/01/02 02:07:39;;;;;;;;;;;7.40;99.90;;;6.88;87.27;100909.28;5015077;28;19925;-63
2021/01/02 02:10:08;;;;;;;;;;;7.40;99.90;;;6.91;87.19;100906.06;4997473;28;19929;-63
2021/01/02 02:12:36;;;;;;;;;;;7.50;99.90;;;6.96;87.48;100911.47;5014276;28;19948;-63
2021/01/02 02:15:10;;;;;;;;;;;7.50;99.90;;;6.84;86.43;100910.88;5014824;28;19926;-64
2021/01/02 02:17:45;;;;;;;;;;;7.50;99.90;;;6.73;88.66;100911.91;4981649;28;19932;-64
2021/01/02 02:20:16;;;;;;;;;;;7.30;99.90;;;6.74;88.52;100898.22;5014707;28;19929;-63
2021/01/02 02:22:44;;;;;;;;;;;7.30;99.90;;;6.65;88.35;100912.41;5013777;28;19925;-63
2021/01/02 02:25:13;;;;;;;;;;;7.30;99.90;;;6.69;89.15;100908.13;4997120;28;20348;-63
2021/01/02 02:27:42;;;;;;;;;;;7.30;99.90;;;6.57;89.07;100909.13;4981171;28;19929;-64
2021/01/02 02:30:12;;;;;;;;;;;7.20;99.90;;;6.47;90.00;100917.16;4997365;28;19926;-63
2021/01/02 02:32:40;;;;;;;;;;;7.10;99.90;;;6.34;90.32;100922.16;5013974;28;19929;-63
2021/01/02 02:35:14;;;;;;;;;;;7.00;99.90;;;6.18;89.82;100915.06;5014360;28;20393;-63
2021/01/02 02:37:45;;;;;;;;;;;6.80;99.90;;;6.12;91.14;100916.09;5014525;28;19926;-64
2021/01/02 02:40:17;;;;;;;;;;;6.80;99.90;;;6.03;91.26;100921.13;5014530;28;20028;-64
2021/01/02 02:42:48;;;;;;;;;;;6.70;99.90;;;5.89;91.43;100928.84;5013930;28;19926;-63
2021/01/02 02:45:16;;;;;;;;;;;6.50;99.90;;;5.74;91.46;100931.34;5014291;28;19988;-63
2021/01/02 02:47:45;;;;;;;;;;;6.40;99.90;;;5.66;92.68;100925.63;5014453;28;19988;-63
2021/01/02 02:50:23;;;;;;;;;;;6.30;99.90;;;5.72;93.21;100929.97;5014311;28;19926;-63
2021/01/02 02:53:01;;;;;;;;;;;6.30;99.90;;;5.84;93.96;100935.97;4996163;28;19930;-63
2021/01/02 02:55:29;;;;;;;;;;;6.40;99.90;;;6.03;93.90;100938.06;5014185;28;19972;-63
2021/01/02 02:57:56;;;;;;;;;;;6.60;99.90;;;6.18;92.64;100929.31;5014283;28;20178;-64
2021/01/02 03:00:23;;;;;;;;;;;6.80;99.90;;;6.29;92.20;100930.19;4996778;28;19972;-63
2021/01/02 03:02:51;;;;;;;;;;;6.90;99.90;;;6.40;91.25;100938.06;5013414;28;19936;-63
2021/01/02 03:05:19;;;;;;;;;;;7.00;99.90;;;6.44;90.93;100936.44;5013773;28;19925;-63
2021/01/02 03:07:48;;;;;;;;;;;7.00;99.90;;;6.47;90.39;100935.16;5014145;28;19929;-63
2021/01/02 03:10:17;;;;;;;;;;;7.10;99.90;;;6.45;90.58;100940.75;4996644;28;20297;-63
2021/01/02 03:12:45;;;;;;;;;;;7.10;99.90;;;6.47;90.45;100933.28;5013595;28;19926;-63
2021/01/02 03:15:14;;;;;;;;;;;7.10;99.90;;;6.54;89.72;100941.09;5013741;28;19926;-63
2021/01/02 03:17:42;;;;;;;;;;;7.10;99.90;;;6.55;89.51;100935.47;4996547;28;20351;-63
2021/01/02 03:20:10;;;;;;;;;;;7.10;99.90;;;6.56;88.65;100942.47;5013665;28;19953;-64
2021/01/02 03:22:40;;;;;;;;;;;7.20;99.90;;;6.55;89.21;100932.78;5012816;28;19972;-63
2021/01/02 03:25:08;;;;;;;;;;;7.20;99.90;;;6.54;89.04;100941.91;5013413;28;19925;-64
2021/01/02 03:27:36;;;;;;;;;;;7.20;99.90;;;6.57;89.06;100946.75;5013798;28;19925;-63
2021/01/02 03:30:04;;;;;;;;;;;7.20;99.90;;;6.71;89.78;100946.28;4996253;28;20357;-64
2021/01/02 03:32:32;;;;;;;;;;;7.30;99.90;;;6.91;88.72;100941.00;5012398;28;19930;-63
2021/01/02 03:34:59;;;;;;;;;;;7.50;99.90;;;7.06;87.72;100938.38;4996147;28;19964;-63
2021/01/02 03:37:27;;;;;;;;;;;7.60;99.90;;;7.11;87.57;100941.09;5013411;28;19925;-63
2021/01/02 03:39:55;;;;;;;;;;;7.70;99.90;;;7.17;87.28;100945.44;4996065;28;20326;-63
2021/01/02 03:42:22;;;;;;;;;;;7.80;99.90;;;7.22;86.98;100944.63;5012423;28;19929;-63
2021/01/02 03:44:49;;;;;;;;;;;7.80;99.90;;;7.26;87.13;100938.47;4995943;28;19925;-63
2021/01/02 03:47:17;;;;;;;;;;;7.80;99.90;;;7.19;87.29;100945.16;5013328;28;19933;-63
2021/01/02 03:49:44;;;;;;;;;;;7.80;99.90;;;7.09;87.53;100943.22;5013257;28;20365;-64
2021/01/02 03:52:12;;;;;;;;;;;7.70;99.90;;;7.07;88.21;100938.13;5012390;28;19925;-63
2021/01/02 03:54:40;;;;;;;;;;;7.70;99.90;;;7.02;87.71;100932.72;5013195;28;20304;-63
2021/01/02 03:57:08;;;;;;;;;;;7.70;99.90;;;7.01;87.57;100936.50;4979599;28;19929;-63
2021/01/02 03:59:35;;;;;;;;;;;7.60;99.90;;;7.05;87.17;100929.50;5013025;28;19925;-63
2021/01/02 04:02:02;;;;;;;;;;;7.70;99.90;;;7.09;86.27;100943.22;4979040;28;20304;-63
2021/01/02 04:04:29;;;;;;;;;;;7.70;99.90;;;7.11;86.08;100931.13;5012755;28;20274;-64
2021/01/02 04:06:57;;;;;;;;;;;7.70;99.90;;;7.09;86.02;100938.66;5012538;28;19925;-63
2021/01/02 04:09:24;;;;;;;;;;;7.70;99.90;;;7.09;85.68;100940.53;4995484;28;20293;-63
2021/01/02 04:11:51;;;;;;;;;;;7.60;99.90;;;7.06;85.75;100933.00;5012354;28;20328;-64
2021/01/02 04:14:19;;;;;;;;;;;7.60;99.90;;;7.04;85.55;100929.78;5012957;28;19929;-63
2021/01/02 04:16:46;;;;;;;;;;;7.60;99.90;;;6.97;85.96;100929.19;5012376;28;19925;-64
2021/01/02 04:19:14;;;;;;;;;;;7.60;99.90;;;6.83;86.49;100931.56;5012695;28;19929;-63
2021/01/02 04:21:41;;;;;;;;;;;7.40;99.90;;;6.69;86.59;100921.56;5012049;28;20365;-63
2021/01/02 04:24:09;;;;;;;;;;;7.30;99.90;;;6.56;87.38;100934.41;5012676;28;19926;-63
2021/01/02 04:26:36;;;;;;;;;;;7.20;99.90;;;6.54;87.33;100933.03;4994795;28;19925;-64
2021/01/02 04:29:04;;;;;;;;;;;7.20;99.90;;;6.55;87.64;100921.22;5012648;28;19933;-63
2021/01/02 04:31:36;;;;;;;;;;;7.20;99.90;;;6.58;87.45;100918.00;4994992;28;19932;-63
2021/01/02 04:34:03;;;;;;;;;;;7.20;99.90;;;6.56;87.49;100912.91;5012384;28;19933;-64
2021/01/02 04:36:30;;;;;;;;;;;7.20;99.90;;;6.58;87.29;100909.94;5012178;28;19926;-63
2021/01/02 04:38:58;;;;;;;;;;;7.20;99.90;;;6.50;86.96;100916.63;5012482;28;20309;-63
2021/01/02 04:41:25;;;;;;;;;;;7.10;99.90;;;6.50;87.25;100913.13;5012280;28;19988;-63
2021/01/02 04:43:53;;;;;;;;;;;7.10;99.90;;;6.44;87.44;100920.34;5011094;28;19933;-63
2021/01/02 04:46:21;;;;;;;;;;;7.10;99.90;;;6.35;88.07;100915.75;5011690;28;19988;-63
2021/01/02 04:48:50;;;;;;;;;;;7.00;99.90;;;6.34;88.68;100908.75;5012386;28;19926;-63
2021/01/02 04:51:18;;;;;;;;;;;7.00;99.90;;;6.33;88.41;100902.56;5012387;28;19948;-63
2021/01/02 04:53:45;;;;;;;;;;;6.90;99.90;;;6.32;88.43;100906.28;5011768;28;19932;-64
2021/01/02 04:56:13;;;;;;;;;;;6.90;99.90;;;6.31;88.85;100904.69;5012065;28;19926;-63
2021/01/02 04:58:42;;;;;;;;;;;6.90;99.90;;;6.29;88.00;100904.13;4995020;28;19925;-64
2021/01/02 05:01:11;;;;;;;;;;;6.90;99.90;;;6.32;88.39;100886.72;5012007;28;19930;-63
2021/01/02 05:03:44;;;;;;;;;;;6.90;99.90;;;6.32;87.96;100894.78;4994335;28;19926;-63
2021/01/02 05:06:12;;;;;;;;;;;6.90;99.90;;;6.32;88.32;100886.72;5011835;28;19929;-63
2021/01/02 05:08:40;;;;;;;;;;;6.90;99.90;;;6.37;89.06;100881.38;5012390;28;19933;-63
2021/01/02 05:11:07;;;;;;;;;;;7.00;99.90;;;6.35;88.04;100881.59;5012136;28;20384;-63
2021/01/02 05:13:36;;;;;;;;;;;7.00;99.90;;;6.29;88.30;100879.19;5011556;28;19925;-63
2021/01/02 05:16:17;;;;;;;;;;;6.90;99.90;;;6.25;88.97;100886.94;4994708;28;19952;-63
2021/01/02 05:18:58;;;;;;;;;;;6.90;99.90;;;6.23;89.71;100881.00;4995145;28;19926;-63
2021/01/02 05:21:27;;;;;;;;;;;6.90;99.90;;;6.27;90.39;100882.09;5011958;28;19932;-64
2021/01/02 05:24:05;;;;;;;;;;;6.90;99.90;;;6.44;89.37;100881.94;5011606;28;19925;-64
2021/01/02 05:26:33;;;;;;;;;;;7.10;99.90;;;6.55;88.81;100865.59;5011742;28;19925;-63
2021/01/02 05:29:17;;;;;;;;;;;7.20;99.90;;;6.64;88.94;100865.91;5012072;28;19929;-63
2021/01/02 05:31:46;;;;;;;;;;;7.20;99.90;;;6.71;88.35;100868.38;5011540;28;20293;-63
2021/01/02 05:34:15;;;;;;;;;;;7.30;99.90;;;6.74;87.75;100859.78;5011997;28;19925;-63
2021/01/02 05:36:44;;;;;;;;;;;7.30;99.90;;;6.72;87.31;100861.94;5011619;28;19925;-63
2021/01/02 05:39:13;;;;;;;;;;;7.30;99.90;;;6.75;87.16;100872.16;4994307;28;19932;-63
2021/01/02 05:41:54;;;;;;;;;;;7.40;99.90;;;6.80;87.72;100861.41;5011314;28;20369;-64
2021/01/02 05:44:22;;;;;;;;;;;7.40;99.90;;;6.77;87.29;100859.25;5011904;28;19929;-63
2021/01/02 05:46:52;;;;;;;;;;;7.40;99.90;;;6.71;87.09;100865.69;5011608;28;19925;-63
2021/01/02 05:49:37;;;;;;;;;;;7.30;99.90;;;6.68;86.99;100855.44;5011673;28;19930;-63
2021/01/02 05:52:06;;;;;;;;;;;7.30;99.90;;;6.69;87.36;100863.25;5011352;28;19948;-64
2021/01/02 05:54:35;;;;;;;;;;;7.30;99.90;;;6.69;87.14;100862.44;5011789;28;19991;-63
2021/01/02 05:57:03;;;;;;;;;;;7.30;99.90;;;6.63;87.59;100861.59;4997927;28;20348;-64
2021/01/02 05:59:32;;;;;;;;;;;7.30;99.90;;;6.61;87.05;100869.13;5014997;28;19933;-64
2021/01/02 06:02:13;;;;;;;;;;;7.20;99.90;;;6.59;87.79;100864.03;4997119;28;19930;-64
2021/01/02 06:04:53;;;;;;;;;;;7.20;99.90;;;6.54;87.70;100869.34;5015076;28;20064;-63
2021/01/02 06:07:22;;;;;;;;;;;7.20;99.90;;;6.57;88.03;100876.09;5015182;28;19929;-63
2021/01/02 06:09:49;;;;;;;;;;;7.20;99.90;;;6.55;88.09;100881.72;4997354;28;19929;-63
2021/01/02 06:12:25;;;;;;;;;;;7.20;99.90;;;6.53;88.01;100873.13;4996942;28;19929;-63
2021/01/02 06:14:53;;;;;;;;;;;7.20;99.90;;;6.50;88.45;100870.16;5015278;28;20300;-63
2021/01/02 06:17:28;;;;;;;;;;;7.10;99.90;;;6.47;88.49;100870.69;5014659;28;20459;-64
2021/01/02 06:19:58;;;;;;;;;;;7.10;99.90;;;6.49;89.52;100881.97;5014840;28;20309;-63
2021/01/02 06:22:27;;;;;;;;;;;7.10;99.90;;;6.55;88.91;100876.34;4964990;28;19930;-64
2021/01/02 06:24:54;;;;;;;;;;;7.20;99.90;;;6.64;88.51;100875.84;5014986;28;19930;-63
2021/01/02 06:27:21;;;;;;;;;;;7.20;99.90;;;6.70;88.58;100886.38;4997486;28;19933;-63
2021/01/02 06:29:53;;;;;;;;;;;7.30;99.90;;;6.65;88.25;100880.16;4997096;28;20230;-64
2021/01/02 06:32:21;;;;;;;;;;;7.30;99.90;;;6.65;88.37;100885.53;5013993;28;19936;-63
2021/01/02 06:35:21;;;;;;;;;;;7.30;99.90;;;6.63;87.81;100885.78;5014682;28;20397;-63
2021/01/02 06:38:10;;;;;;;;;;;7.20;99.90;;;6.67;88.44;100886.06;5014634;28;19929;-63
2021/01/02 06:40:39;;;;;;;;;;;7.30;99.90;;;6.70;88.41;100888.22;5014324;28;19929;-63
2021/01/02 06:43:07;;;;;;;;;;;7.30;99.90;;;6.71;87.64;100885.31;5013787;28;19985;-63
2021/01/02 06:45:58;;;;;;;;;;;7.30;99.90;;;6.76;87.93;100885.31;5014381;28;19933;-63
2021/01/02 06:48:46;;;;;;;;;;;7.40;99.90;;;6.85;88.33;100882.91;4997044;28;20366;-63
2021/01/02 06:51:32;;;;;;;;;;;7.40;99.90;;;6.88;88.11;100882.41;5008113;28;19926;-63
2021/01/02 06:54:02;;;;;;;;;;;7.50;99.90;;;6.91;87.88;100888.06;5014081;28;20443;-64
2021/01/02 06:56:31;;;;;;;;;;;7.50;99.90;;;6.98;87.22;100887.81;5014386;28;19926;-64
2021/01/02 06:58:58;;;;;;;;;;;7.60;99.90;;;7.01;87.00;100893.47;5014123;28;19948;-63
2021/01/02 07:01:38;;;;;;;;;;;7.60;99.90;;;6.87;86.93;100886.97;5013882;28;19932;-63
2021/01/02 07:04:05;;;;;;;;;;;7.50;99.90;;;6.82;87.55;100891.50;5014100;28;19930;-63
2021/01/02 07:06:40;;;;;;;;;;;7.40;99.90;;;6.79;87.70;100884.78;5013232;28;19933;-63
2021/01/02 07:09:27;;;;;;;;;;;7.40;99.90;;;6.77;88.64;100891.50;5013847;28;19925;-63
2021/01/02 07:12:09;;;;;;;;;;;7.30;99.90;;;6.72;88.07;100891.50;5013212;28;19931;-63
2021/01/02 07:14:36;;;;;;;;;;;7.30;99.90;;;6.74;88.62;100886.66;4997024;28;20266;-63
2021/01/02 07:17:05;;;;;;;;;;;7.40;99.90;;;6.78;88.20;100882.38;4996439;28;20408;-64
2021/01/02 07:19:46;;;;;;;;;;;7.40;99.90;;;6.72;88.11;100888.81;4996600;28;19979;-63
2021/01/02 07:22:27;;;;;;;;;;;7.30;99.90;;;6.72;88.41;100894.19;5012978;28;20406;-63
2021/01/02 07:25:00;;;;;;;;;;;7.30;99.90;;;6.75;87.74;100888.28;5013776;28;19932;-63
2021/01/02 07:27:30;;;;;;;;;;;7.40;99.90;;;6.77;87.58;100897.69;4996671;28;19929;-63
2021/01/02 07:29:59;;;;;;;;;;;7.30;99.90;;;6.75;87.46;100897.13;5013483;28;19932;-63
2021/01/02 07:32:27;;;;;;;;;;;7.30;99.90;;;6.70;87.59;100896.28;5012951;28;19933;-64
2021/01/02 07:34:56;;;;;;;;;;;7.30;99.90;;;6.78;88.08;100898.50;5013688;28;20377;-64
2021/01/02 07:37:24;;;;;;;;;;;7.40;99.90;;;6.83;87.51;100895.81;5013330;28;19932;-63
2021/01/02 07:40:00;;;;;;;;;;;7.40;99.90;;;6.84;86.38;100892.84;5013271;28;19929;-63
2021/01/02 07:42:28;;;;;;;;;;;7.40;99.90;;;6.85;87.73;100896.34;5012512;28;19926;-64
2021/01/02 07:44:57;;;;;;;;;;;7.50;99.90;;;6.84;87.30;100898.22;5013495;28;20403;-63
2021/01/02 07:47:25;;;;;;;;;;;7.40;99.90;;;6.92;86.92;100905.00;5013256;28;19933;-64
2021/01/02 07:50:03;;;;;;;;;;;7.50;99.90;;;6.87;86.63;100908.47;4995674;28;19972;-63
2021/01/02 07:52:30;;;;;;;;;;;7.50;99.90;;;6.86;86.95;100898.81;4994991;28;20312;-64
2021/01/02 07:54:59;;;;;;;;;;;7.40;99.90;;;6.87;87.25;100910.38;4996018;28;19925;-64
2021/01/02 07:57:26;;;;;;;;;;;7.40;99.90;;;6.88;86.90;100904.72;5012058;28;20300;-64
2021/01/02 07:59:54;;;;;;;;;;;7.50;99.90;;;6.99;86.07;100902.88;5013043;28;19980;-63
2021/01/02 08:02:23;;;;;;;;;;;7.50;99.90;;;7.05;86.11;100909.91;5012085;28;20289;-64
2021/01/02 08:04:51;;;;;;;;;;;7.60;99.90;;;7.09;85.72;100909.09;5013031;28;20318;-64
2021/01/02 08:07:18;;;;;;;;;;;7.60;99.90;;;7.11;85.27;100917.69;5012924;28;20020;-63
2021/01/02 08:09:47;;;;;;;;;;;7.60;99.90;;;7.11;85.79;100920.38;5012880;28;19925;-63
2021/01/02 08:12:16;;;;;;;;;;;7.70;99.90;;;7.21;85.61;100919.59;5012007;28;19929;-63
2021/01/02 08:14:45;;;;;;;;;;;7.70;99.90;;;7.35;85.11;100915.34;5012954;28;19925;-63
2021/01/02 08:17:14;;;;;;;;;;;7.90;99.90;;;7.44;84.90;100919.13;5012645;28;19930;-63
2021/01/02 08:19:53;;;;;;;;;;;8.00;99.90;;;7.52;84.51;100929.38;4979343;28;19933;-63
2021/01/02 08:22:28;;;;;;;;;;;8.10;99.90;;;7.58;84.78;100936.38;5011901;28;19925;-63
2021/01/02 08:24:56;;;;;;;;;;;8.10;99.90;;;7.66;84.03;100930.44;5012915;28;20016;-63
2021/01/02 08:27:24;;;;;;;;;;;8.20;99.90;;;7.74;84.31;100934.50;4995106;28;19932;-63
2021/01/02 08:29:52;;;;;;;;;;;8.30;99.90;;;7.82;83.86;100938.53;5012439;28;20400;-64
2021/01/02 08:32:21;;;;;;;;;;;8.40;99.90;;;7.94;83.95;100947.16;5011977;28;19929;-64
2021/01/02 08:34:48;;;;;;;;;;;8.50;99.90;;;8.02;83.31;100946.66;5012698;28;19925;-64
2021/01/02 08:37:17;;;;;;;;;;;8.60;99.90;;;8.12;84.18;100943.94;5012440;28;19925;-64
2021/01/02 08:39:45;;;;;;;;;;;8.60;99.90;;;8.34;82.69;100949.88;5012385;28;19926;-63
2021/01/02 08:42:13;;;;;;;;;;;8.80;99.90;;;8.62;81.50;100948.47;5011514;28;19926;-64
2021/01/02 08:44:46;;;;;;;;;;;9.00;99.90;;;8.85;80.22;100955.13;5012476;28;19932;-64
2021/01/02 08:47:24;;;;;;;;;;;9.20;99.90;;;9.04;79.31;100948.06;4994917;28;20385;-64
2021/01/02 08:49:52;;;;;;;;;;;9.40;99.90;;;9.18;78.38;100954.50;4995145;28;20016;-64
2021/01/02 08:52:26;;;;;;;;;;;9.50;99.90;;;9.31;77.56;100953.88;5011630;28;19929;-64
2021/01/02 08:54:55;;;;;;;;;;;9.60;99.90;;;9.44;77.34;100950.56;5012381;28;19933;-63
2021/01/02 08:57:32;;;;;;;;;;;9.70;99.90;;;9.60;76.95;100956.69;5012208;28;19926;-65
2021/01/02 09:00:17;;;;;;;;;;;9.90;99.90;;;9.72;77.13;100949.88;5012280;28;20407;-65
2021/01/02 09:02:45;;;;;;;;;;;10.00;99.90;;;9.83;74.91;100958.69;5011402;28;19933;-65
2021/01/02 09:05:14;;;;;;;;;;;10.10;99.90;;;9.91;74.45;100963.47;5012180;28;19929;-65
2021/01/02 09:07:55;;;;;;;;;;;10.20;99.90;;;10.01;73.69;100965.28;5012320;28;19925;-65
2021/01/02 09:10:26;;;;;;;;;;;10.30;99.90;;;10.10;73.96;100966.31;5012091;28;19932;-65
2021/01/02 09:13:19;;;;;;;;;;;10.40;99.90;;;10.21;73.96;100962.47;4993884;28;19926;-63
2021/01/02 09:15:50;;;;;;;;;;;10.50;99.90;;;10.28;74.54;100965.63;5012243;28;19933;-64
2021/01/02 09:18:18;;;;;;;;;;;10.60;99.90;;;10.34;73.78;100964.50;4994914;28;19925;-64
2021/01/02 09:20:46;;;;;;;;;;;10.70;99.90;;;10.40;72.49;100968.78;4994384;28;19933;-63
2021/01/02 09:23:13;;;;;;;;;;;10.70;99.90;;;10.51;72.91;100972.19;5011103;28;19933;-63
2021/01/02 09:25:41;;;;;;;;;;;10.80;99.90;;;10.57;72.25;100974.56;5011941;28;19979;-64
2021/01/02 09:28:16;;;;;;;;;;;10.90;99.90;;;10.63;71.98;100978.03;5012157;28;19968;-63
2021/01/02 09:30:45;;;;;;;;;;;10.90;99.90;;;10.69;71.99;100979.59;5013231;28;19926;-63
2021/01/02 09:33:14;;;;;;;;;;;10.90;99.90;;;10.76;70.74;100983.53;5014948;28;19967;-63
2021/01/02 09:35:45;;;;;;;;;;;11.00;99.90;;;10.80;71.23;100981.06;5015067;28;20231;-63
2021/01/02 09:38:12;;;;;;;;;;;11.10;99.90;;;10.91;71.02;100980.69;5015890;28;20340;-63
2021/01/02 09:40:42;;;;;;;;;;;11.20;99.90;;;11.01;71.14;100989.78;5015559;28;19975;-63
2021/01/02 09:43:14;;;;;;;;;;;11.30;99.90;;;11.10;71.58;100996.16;5014601;28;19926;-63
2021/01/02 09:45:42;;;;;;;;;;;11.40;99.90;;;11.19;71.52;100994.44;5015542;28;19926;-64
2021/01/02 09:48:11;;;;;;;;;;;11.50;99.90;;;11.27;71.06;101001.94;5015801;28;19948;-64
2021/01/02 09:50:40;;;;;;;;;;;11.60;99.90;;;11.36;70.47;101000.19;5015440;28;20036;-63
2021/01/02 09:53:08;;;;;;;;;;;11.60;99.90;;;11.36;69.60;101006.41;5014207;28;19951;-64
2021/01/02 09:55:35;;;;;;;;;;;11.70;99.90;;;11.39;68.47;101000.41;5015488;28;19972;-64
2021/01/02 09:58:04;;;;;;;;;;;11.70;99.90;;;11.44;69.12;100999.53;5015593;28;19926;-64
2021/01/02 10:00:31;;;;;;;;;;;11.70;99.90;;;11.47;68.62;101005.19;5015348;28;19925;-64
2021/01/02 10:02:59;;;;;;;;;;;11.80;99.90;;;11.59;69.12;101010.16;5014244;28;20324;-64
2021/01/02 10:05:28;;;;;;;;;;;11.80;99.90;;;11.63;67.86;101008.50;4997516;28;19956;-63
2021/01/02 10:07:55;;;;;;;;;;;11.90;99.90;;;11.69;68.66;101011.94;4998066;28;20059;-63
2021/01/02 10:10:22;;;;;;;;;;;12.00;99.90;;;11.73;68.56;101013.81;5015139;28;19926;-63
2021/01/02 10:12:50;;;;;;;;;;;12.00;99.90;;;11.73;67.38;101015.69;4996919;28;19979;-65
2021/01/02 10:15:19;;;;;;;;;;;12.00;99.90;;;11.73;66.93;101013.81;5015015;28;19987;-65
2021/01/02 10:17:46;;;;;;;;;;;12.00;99.90;;;11.78;68.15;101008.31;5014887;28;19925;-64
2021/01/02 10:20:14;;;;;;;;;;;12.10;99.90;;;11.87;69.47;101022.00;5015061;28;19936;-64
2021/01/02 10:22:42;;;;;;;;;;;12.20;99.90;;;11.87;67.55;101014.66;5013773;28;19925;-64
2021/01/02 10:25:10;;;;;;;;;;;12.20;99.90;;;11.96;68.16;101021.03;5015014;28;19925;-63
2021/01/02 10:27:37;;;;;;;;;;;12.30;99.90;;;12.04;68.94;101028.50;5014847;28;20056;-64
2021/01/02 10:30:07;;;;;;;;;;;12.30;99.90;;;12.07;68.60;101032.53;5014616;28;19980;-63
2021/01/02 10:32:35;;;;;;;;;;;12.30;99.90;;;12.10;68.99;101031.94;4996033;28;19925;-63
2021/01/02 10:35:03;;;;;;;;;;;12.40;99.90;;;12.24;69.68;101034.72;5014898;28;19926;-63
2021/01/02 10:37:30;;;;;;;;;;;12.50;99.90;;;12.28;69.49;101039.25;5014512;28;19929;-65
2021/01/02 10:39:58;;;;;;;;;;;12.60;99.90;;;12.29;68.81;101029.19;4997101;28;19926;-63
2021/01/02 10:42:27;;;;;;;;;;;12.60;99.90;;;12.37;67.87;101028.56;5012221;28;19925;-63
2021/01/02 10:44:54;;;;;;;;;;;12.60;99.90;;;12.37;67.80;101033.97;5014556;28;19926;-64
2021/01/02 10:47:23;;;;;;;;;;;12.70;99.90;;;12.32;65.44;101031.31;4996870;28;19930;-64
2021/01/02 10:49:52;;;;;;;;;;;12.70;99.90;;;12.44;67.47;101031.66;5014489;28;19930;-64
2021/01/02 10:52:20;;;;;;;;;;;12.70;99.90;;;12.45;67.13;101027.84;5013314;28;19929;-64
2021/01/02 10:54:48;;;;;;;;;;;12.80;99.90;;;12.41;66.65;101022.22;5014353;28;19925;-64
2021/01/02 10:57:17;;;;;;;;;;;12.70;99.90;;;12.47;67.51;101034.59;5014292;28;19926;-64
2021/01/02 10:59:45;;;;;;;;;;;12.80;99.90;;;12.47;68.66;101029.16;5014348;28;19925;-64
2021/01/02 11:02:13;;;;;;;;;;;12.80;99.90;;;12.56;68.11;101021.97;5013399;28;19925;-64
2021/01/02 11:04:40;;;;;;;;;;;12.90;99.90;;;12.60;65.96;101019.47;5014264;28;19929;-64
2021/01/02 11:07:09;;;;;;;;;;;;;;;12.61;67.28;101026.50;5014049;28;19933;-64
2021/01/02 11:09:36;;;;;;;;;;;12.90;99.90;;;12.58;65.52;101025.16;5013810;28;20404;-64
2021/01/02 11:12:04;;;;;;;;;;;12.90;99.90;;;12.59;66.75;101025.97;4995936;28;19949;-64
2021/01/02 11:14:32;;;;;;;;;;;13.00;99.90;;;12.66;67.67;101023.69;5013869;28;19925;-64
2021/01/02 11:16:59;;;;;;;;;;;13.00;99.90;;;12.76;68.01;101028.13;4996388;28;19929;-64
2021/01/02 11:19:28;;;;;;;;;;;13.10;99.90;;;12.79;66.92;101017.50;5013720;28;20352;-64
2021/01/02 11:21:57;;;;;;;;;;;13.10;99.90;;;12.76;65.95;101018.09;5012983;28;19933;-64
2021/01/02 11:24:28;;;;;;;;;;;13.10;99.90;;;12.80;65.87;101021.81;5013439;28;19962;-63
2021/01/02 11:26:57;;;;;;;;;;;13.10;99.90;;;12.83;66.78;101013.06;5013699;28;19929;-63
2021/01/02 11:29:26;;;;;;;;;;;13.20;99.90;;;12.89;65.03;101009.16;4996139;28;19925;-64
2021/01/02 11:31:53;;;;;;;;;;;13.30;99.90;;;12.96;66.08;101004.13;4995260;28;19987;-63
2021/01/02 11:34:21;;;;;;;;;;;13.30;99.90;;;13.01;66.49;101004.03;5013451;28;19937;-64
2021/01/02 11:36:50;;;;;;;;;;;13.30;99.90;;;12.94;65.32;101003.63;4996029;28;19925;-63
2021/01/02 11:39:17;;;;;;;;;;;13.30;99.90;;;12.93;64.80;101002.03;4996116;28;20300;-63
2021/01/02 11:41:46;;;;;;;;;;;13.30;99.90;;;12.89;65.47;101009.16;4995536;28;19932;-63